Time;durP1;ratioP1;P1;durP2;ratioP2;P2;SDS_P1;SDS_P2;PMS_P1;PMS_P2;Temp;Humidity;BMP_temperature;BMP_pressure;BME280_temperature;BME280_humidity;BME280_pressure;Samples;Min_cycle;Max_cycle;Signal;HPM_P1;HPM_P2
2023/06/04 00:02:18;;;;;;;12.40;8.75;;;19.30;75.00;;;;;;4977502;28;20344;-67
2023/06/04 00:04:45;;;;;;;9.80;7.50;;;19.30;75.10;;;;;;4978361;28;20376;-69
2023/06/04 00:07:10;;;;;;;12.23;8.65;;;19.30;75.10;;;;;;4978660;28;20106;-68
2023/06/04 00:09:36;;;;;;;9.90;7.60;;;19.20;75.00;;;;;;4978184;28;20477;-69
2023/06/04 00:12:03;;;;;;;11.23;8.77;;;19.20;75.00;;;;;;4978374;28;20068;-68
2023/06/04 00:14:29;;;;;;;10.68;8.57;;;19.20;75.30;;;;;;4978231;28;20054;-68
2023/06/04 00:16:55;;;;;;;11.98;8.07;;;19.10;75.50;;;;;;4978265;28;20027;-69
2023/06/04 00:19:20;;;;;;;11.25;7.90;;;19.10;75.50;;;;;;4978087;28;20030;-68
2023/06/04 00:21:46;;;;;;;10.82;7.85;;;19.20;75.50;;;;;;4978228;28;20034;-68
2023/06/04 00:24:12;;;;;;;14.07;8.77;;;19.10;75.50;;;;;;4977771;28;20396;-68
2023/06/04 00:26:38;;;;;;;9.82;7.65;;;19.20;75.50;;;;;;4978009;28;20038;-68
2023/06/04 00:29:04;;;;;;;12.95;9.57;;;19.20;75.60;;;;;;4978019;28;20071;-69
2023/06/04 00:31:30;;;;;;;13.15;8.57;;;19.20;75.90;;;;;;4978033;28;20035;-68
2023/06/04 00:33:56;;;;;;;11.77;9.27;;;19.20;75.60;;;;;;4977879;28;20031;-68
2023/06/04 00:36:22;;;;;;;10.68;7.43;;;19.20;75.90;;;;;;4977054;28;20086;-68
2023/06/04 00:38:48;;;;;;;11.48;7.55;;;19.20;75.80;;;;;;4977841;28;20057;-68
2023/06/04 00:41:14;;;;;;;10.38;7.03;;;19.20;75.70;;;;;;4977782;28;20469;-68
2023/06/04 00:43:40;;;;;;;8.98;6.93;;;19.20;75.70;;;;;;4977658;28;20015;-68
2023/06/04 00:46:06;;;;;;;10.15;7.20;;;19.20;75.50;;;;;;4977756;28;20081;-68
2023/06/04 00:48:32;;;;;;;10.80;7.10;;;19.20;75.50;;;;;;4977741;28;20033;-68
2023/06/04 00:50:59;;;;;;;9.68;6.90;;;19.20;75.50;;;;;;4977739;28;20038;-68
2023/06/04 00:53:25;;;;;;;8.02;6.45;;;19.30;75.50;;;;;;4976264;28;20023;-68
2023/06/04 00:55:51;;;;;;;10.65;7.35;;;19.20;75.50;;;;;;4977554;28;20487;-68
2023/06/04 00:58:17;;;;;;;11.10;7.60;;;19.20;75.50;;;;;;4977802;28;20121;-68
2023/06/04 01:00:45;;;;;;;8.35;6.05;;;19.30;75.70;;;;;;4977374;28;20448;-68
2023/06/04 01:03:22;;;;;;;8.05;6.07;;;19.30;75.50;;;;;;4977278;28;20066;-68
2023/06/04 01:06:04;;;;;;;6.88;5.35;;;19.30;75.40;;;;;;4977518;28;20023;-68
2023/06/04 01:08:31;;;;;;;7.90;5.18;;;19.30;75.30;;;;;;4977086;28;20030;-68
2023/06/04 01:10:58;;;;;;;6.45;4.75;;;19.30;75.30;;;;;;4977158;28;20042;-68
2023/06/04 01:13:25;;;;;;;7.60;5.10;;;19.30;75.30;;;;;;4977151;28;20027;-68
2023/06/04 01:15:51;;;;;;;7.22;4.70;;;19.30;75.40;;;;;;4977148;28;20039;-68
2023/06/04 01:18:28;;;;;;;5.88;4.63;;;19.30;75.30;;;;;;4977107;28;20105;-69
2023/06/04 01:21:07;;;;;;;7.05;4.47;;;19.30;75.20;;;;;;4976688;28;20364;-68
2023/06/04 01:23:49;;;;;;;7.00;5.03;;;19.30;75.20;;;;;;4977219;28;20098;-68
2023/06/04 01:26:15;;;;;;;5.60;4.35;;;19.30;75.20;;;;;;4977174;28;20058;-68
2023/06/04 01:28:43;;;;;;;8.93;5.35;;;19.30;75.20;;;;;;4976912;28;20031;-68
2023/06/04 01:31:10;;;;;;;7.60;4.22;;;19.30;75.20;;;;;;4976872;28;20150;-69
2023/06/04 01:33:36;;;;;;;8.45;5.50;;;19.20;75.10;;;;;;4976762;28;20062;-68
2023/06/04 01:36:02;;;;;;;6.47;4.70;;;19.20;75.10;;;;;;4976521;28;20067;-68
2023/06/04 01:38:29;;;;;;;6.50;4.82;;;19.30;75.00;;;;;;4976686;28;20041;-68
2023/06/04 01:40:57;;;;;;;6.53;4.53;;;19.30;75.00;;;;;;4976800;28;20068;-69
2023/06/04 01:43:43;;;;;;;6.70;4.40;;;19.20;74.90;;;;;;4976573;28;20110;-68
2023/06/04 01:46:09;;;;;;;10.25;5.35;;;19.30;74.90;;;;;;4974957;28;20039;-68
2023/06/04 01:48:36;;;;;;;6.35;4.47;;;19.20;74.80;;;;;;4974656;28;20039;-69
2023/06/04 01:51:02;;;;;;;6.43;4.40;;;19.20;74.70;;;;;;4974519;28;20081;-68
2023/06/04 01:53:29;;;;;;;8.15;5.70;;;19.20;74.70;;;;;;4974775;28;20472;-68
2023/06/04 01:55:57;;;;;;;10.13;6.07;;;19.20;74.80;;;;;;4974763;28;20039;-69
2023/06/04 01:58:26;;;;;;;7.65;5.43;;;19.20;74.80;;;;;;4974767;28;20054;-68
2023/06/04 02:00:54;;;;;;;7.15;5.80;;;19.20;74.90;;;;;;4974554;28;20457;-69
2023/06/04 02:03:21;;;;;;;10.25;7.30;;;19.20;75.10;;;;;;4974228;28;20043;-68
2023/06/04 02:05:48;;;;;;;10.90;8.25;;;19.20;75.00;;;;;;4974251;28;20031;-68
2023/06/04 02:08:18;;;;;;;12.50;8.93;;;19.20;75.10;;;;;;4974494;28;20027;-68
2023/06/04 02:10:48;;;;;;;13.75;9.85;;;19.20;75.30;;;;;;4974427;28;20031;-69
2023/06/04 02:13:14;;;;;;;15.25;10.93;;;19.20;75.10;;;;;;4974519;28;20022;-68
2023/06/04 02:15:41;;;;;;;15.70;10.88;;;19.10;75.40;;;;;;4974403;28;20187;-68
2023/06/04 02:18:16;;;;;;;16.42;11.30;;;19.10;75.30;;;;;;4975899;28;20046;-68
2023/06/04 02:20:46;;;;;;;18.05;12.75;;;19.10;75.30;;;;;;4976015;28;20050;-69
2023/06/04 02:23:13;;;;;;;15.23;11.30;;;19.10;75.40;;;;;;4976017;28;20081;-68
2023/06/04 02:25:39;;;;;;;15.75;10.98;;;19.10;75.50;;;;;;4976032;28;20038;-68
2023/06/04 02:28:05;;;;;;;10.70;8.15;;;19.10;75.60;;;;;;4976073;28;20023;-68
2023/06/04 02:30:31;;;;;;;11.38;7.80;;;19.00;75.60;;;;;;4976063;28;20031;-68
2023/06/04 02:33:00;;;;;;;12.82;8.10;;;19.00;75.60;;;;;;4976082;28;20023;-68
2023/06/04 02:35:28;;;;;;;11.88;7.85;;;19.10;75.90;;;;;;4976064;28;20039;-68
2023/06/04 02:37:56;;;;;;;9.52;7.40;;;19.00;75.90;;;;;;4976090;28;20031;-68
2023/06/04 02:40:22;;;;;;;13.13;8.23;;;19.00;75.90;;;;;;4975801;28;20034;-68
2023/06/04 02:42:48;;;;;;;11.05;7.93;;;19.00;75.90;;;;;;4975837;28;20018;-68
2023/06/04 02:45:14;;;;;;;14.23;9.07;;;19.00;76.10;;;;;;4974949;28;20027;-68
2023/06/04 02:47:40;;;;;;;9.60;7.00;;;19.00;76.20;;;;;;4975816;28;20037;-68
2023/06/04 02:50:07;;;;;;;10.50;7.95;;;19.00;75.90;;;;;;4975747;28;20093;-69
2023/06/04 02:52:36;;;;;;;11.63;7.57;;;18.90;76.30;;;;;;4975751;28;20031;-68
2023/06/04 02:55:04;;;;;;;11.82;8.70;;;19.00;76.00;;;;;;4974832;28;20099;-68
2023/06/04 02:57:30;;;;;;;12.15;8.18;;;19.00;76.20;;;;;;4975761;28;20048;-68
2023/06/04 02:59:56;;;;;;;11.10;7.63;;;19.00;76.20;;;;;;4976971;28;20022;-68
2023/06/04 03:02:22;;;;;;;11.00;8.00;;;19.00;76.40;;;;;;4979349;28;20027;-68
2023/06/04 03:04:51;;;;;;;9.88;7.32;;;19.00;76.30;;;;;;4962484;28;20495;-68
2023/06/04 03:07:22;;;;;;;10.75;7.03;;;19.00;76.40;;;;;;4979532;28;20352;-69
2023/06/04 03:09:49;;;;;;;11.50;8.18;;;19.00;76.40;;;;;;4979559;28;20507;-68
2023/06/04 03:12:15;;;;;;;11.02;7.40;;;19.00;76.20;;;;;;4979401;28;20415;-69
2023/06/04 03:14:41;;;;;;;12.20;7.90;;;19.00;76.40;;;;;;4978450;28;20051;-69
2023/06/04 03:17:07;;;;;;;9.15;6.20;;;19.00;76.30;;;;;;4979341;28;20371;-68
2023/06/04 03:19:37;;;;;;;8.75;6.03;;;19.00;76.40;;;;;;4979530;28;20038;-68
2023/06/04 03:22:08;;;;;;;9.15;6.50;;;19.00;76.20;;;;;;4979239;28;20352;-69
2023/06/04 03:24:35;;;;;;;6.72;5.03;;;19.00;76.20;;;;;;4979669;28;20372;-68
2023/06/04 03:27:03;;;;;;;7.93;5.40;;;19.00;76.10;;;;;;4979149;28;20465;-68
2023/06/04 03:29:30;;;;;;;6.65;5.07;;;19.00;75.90;;;;;;4979155;28;20031;-68
2023/06/04 03:31:56;;;;;;;6.13;4.53;;;19.00;75.80;;;;;;4978862;28;20444;-68
2023/06/04 03:34:25;;;;;;;9.65;5.07;;;19.00;75.70;;;;;;4978982;28;20034;-68
2023/06/04 03:36:53;;;;;;;7.65;5.00;;;19.10;75.70;;;;;;4979073;28;20499;-68
2023/06/04 03:39:19;;;;;;;5.25;3.88;;;19.10;75.50;;;;;;4978907;28;20096;-69
2023/06/04 03:41:45;;;;;;;5.03;3.75;;;19.10;75.50;;;;;;4978870;28;20023;-68
2023/06/04 03:44:15;;;;;;;5.90;4.07;;;19.10;75.40;;;;;;4978841;28;20105;-69
2023/06/04 03:46:42;;;;;;;5.65;3.83;;;19.10;75.30;;;;;;4978536;28;20041;-68
2023/06/04 03:49:12;;;;;;;5.32;3.80;;;19.10;75.30;;;;;;4978828;28;20151;-68
2023/06/04 03:51:38;;;;;;;5.75;3.92;;;19.10;75.30;;;;;;4978802;28;20030;-68
2023/06/04 03:54:04;;;;;;;5.82;4.43;;;19.10;75.40;;;;;;4978739;28;20030;-68
2023/06/04 03:56:31;;;;;;;6.50;4.40;;;19.00;75.20;;;;;;4978695;28;20031;-68
2023/06/04 03:58:57;;;;;;;6.72;4.18;;;19.00;75.30;;;;;;4978778;28;20026;-68
2023/06/04 04:01:23;;;;;;;6.72;4.53;;;19.00;75.40;;;;;;4978356;28;20030;-68
2023/06/04 04:03:50;;;;;;;5.90;4.22;;;19.00;75.40;;;;;;4978220;28;20445;-69
2023/06/04 04:06:17;;;;;;;7.55;4.40;;;19.00;75.40;;;;;;4978414;28;20030;-68
2023/06/04 04:08:43;;;;;;;5.78;4.28;;;19.00;75.50;;;;;;4978376;28;20077;-68
2023/06/04 04:11:19;;;;;;;7.80;5.13;;;19.00;75.70;;;;;;4977080;28;20030;-68
2023/06/04 04:13:46;;;;;;;9.70;6.15;;;19.10;75.60;;;;;;4978236;28;20034;-69
2023/06/04 04:16:12;;;;;;;7.10;4.68;;;19.10;76.00;;;;;;4977988;28;20034;-68
2023/06/04 04:18:38;;;;;;;8.02;5.13;;;19.00;75.80;;;;;;4978259;28;20462;-68
2023/06/04 04:21:05;;;;;;;6.45;4.68;;;19.00;76.00;;;;;;4978290;28;20034;-68
2023/06/04 04:23:31;;;;;;;6.07;4.50;;;19.00;76.00;;;;;;4978149;28;20025;-69
2023/06/04 04:26:01;;;;;;;6.18;4.07;;;19.00;76.00;;;;;;4978138;28;20124;-68
2023/06/04 04:28:28;;;;;;;5.93;4.15;;;18.90;76.10;;;;;;4978064;28;20026;-68
2023/06/04 04:30:57;;;;;;;6.82;4.28;;;18.90;76.10;;;;;;4978055;28;20046;-69
2023/06/04 04:33:25;;;;;;;5.00;3.90;;;18.90;76.00;;;;;;4977943;28;20022;-69
2023/06/04 04:35:53;;;;;;;5.13;3.88;;;18.90;76.10;;;;;;4977937;28;20038;-69
2023/06/04 04:38:24;;;;;;;8.00;4.78;;;18.90;76.20;;;;;;4977896;28;20041;-68
2023/06/04 04:40:52;;;;;;;7.63;4.95;;;18.90;76.20;;;;;;4977759;28;20035;-69
2023/06/04 04:43:36;;;;;;;8.07;5.20;;;18.90;76.40;;;;;;4977919;28;20027;-69
2023/06/04 04:46:02;;;;;;;6.20;4.57;;;18.90;76.30;;;;;;4977654;28;20046;-68
2023/06/04 04:48:28;;;;;;;6.07;4.78;;;18.90;76.40;;;;;;4977647;28;20023;-69
2023/06/04 04:50:54;;;;;;;10.13;5.88;;;19.00;76.40;;;;;;4977662;28;20023;-69
2023/06/04 04:53:20;;;;;;;10.93;5.47;;;18.90;76.50;;;;;;4977532;28;20031;-69
2023/06/04 04:55:46;;;;;;;8.73;6.20;;;18.90;76.40;;;;;;4977791;28;20134;-68
2023/06/04 04:58:13;;;;;;;7.68;5.85;;;18.90;76.60;;;;;;4977274;28;20431;-68
2023/06/04 05:00:39;;;;;;;6.75;5.28;;;18.90;76.70;;;;;;4976385;28;20031;-68
2023/06/04 05:03:05;;;;;;;6.90;5.60;;;18.90;76.60;;;;;;4977250;28;20450;-69
2023/06/04 05:05:32;;;;;;;6.32;5.15;;;19.00;76.70;;;;;;4977491;28;20035;-69
2023/06/04 05:07:58;;;;;;;8.38;5.60;;;19.00;76.80;;;;;;4977347;28;20459;-68
2023/06/04 05:10:24;;;;;;;8.43;6.13;;;19.00;76.70;;;;;;4977363;28;20027;-68
2023/06/04 05:12:54;;;;;;;8.13;5.70;;;19.10;76.70;;;;;;4976954;28;20027;-69
2023/06/04 05:15:21;;;;;;;10.00;5.32;;;19.00;76.50;;;;;;4977176;28;20030;-68
2023/06/04 05:17:47;;;;;;;7.13;5.15;;;19.10;76.50;;;;;;4977128;28;20046;-68
2023/06/04 05:20:15;;;;;;;6.88;5.10;;;19.10;76.50;;;;;;4977084;28;20023;-68
2023/06/04 05:22:42;;;;;;;8.50;5.28;;;19.20;76.60;;;;;;4976560;28;20035;-68
2023/06/04 05:25:08;;;;;;;7.93;5.55;;;19.20;76.60;;;;;;4976959;28;20037;-68
2023/06/04 05:27:48;;;;;;;7.20;4.68;;;19.20;76.50;;;;;;4976912;28;20491;-69
2023/06/04 05:30:20;;;;;;;7.50;4.80;;;19.30;76.50;;;;;;4977083;28;20034;-68
2023/06/04 05:32:46;;;;;;;6.65;4.75;;;19.30;76.60;;;;;;4976774;28;20499;-68
2023/06/04 05:35:12;;;;;;;6.85;4.90;;;19.30;76.50;;;;;;4976832;28;20027;-69
2023/06/04 05:37:40;;;;;;;7.75;4.93;;;19.40;76.60;;;;;;4976771;28;20039;-68
2023/06/04 05:40:07;;;;;;;5.05;4.10;;;19.40;76.40;;;;;;4976728;28;20034;-67
2023/06/04 05:42:35;;;;;;;6.15;4.75;;;19.50;76.20;;;;;;4976634;28;20034;-67
2023/06/04 05:45:01;;;;;;;6.38;4.65;;;19.60;76.10;;;;;;4977007;28;20098;-68
2023/06/04 05:47:31;;;;;;;7.95;5.60;;;19.60;76.10;;;;;;4978108;28;20389;-68
2023/06/04 05:49:57;;;;;;;7.50;5.53;;;19.70;75.90;;;;;;4979069;28;20030;-68
2023/06/04 05:52:24;;;;;;;7.63;5.35;;;19.70;75.80;;;;;;4979140;28;20110;-67
2023/06/04 05:54:54;;;;;;;6.97;4.75;;;19.70;75.80;;;;;;4979102;28;20112;-68
2023/06/04 05:57:21;;;;;;;7.38;5.25;;;19.80;75.70;;;;;;4978961;28;20507;-67
2023/06/04 05:59:46;;;;;;;6.30;4.80;;;19.80;75.80;;;;;;4976197;28;20074;-67
2023/06/04 06:02:15;;;;;;;7.28;4.78;;;19.80;75.70;;;;;;4975983;28;20380;-70
2023/06/04 06:04:41;;;;;;;5.95;4.55;;;19.90;75.60;;;;;;4975148;28;20122;-67
2023/06/04 06:07:07;;;;;;;6.07;4.53;;;19.90;75.60;;;;;;4976383;28;20026;-68
2023/06/04 06:09:33;;;;;;;6.15;4.65;;;19.90;75.70;;;;;;4976321;28;20102;-68
2023/06/04 06:11:59;;;;;;;6.60;5.05;;;19.90;75.60;;;;;;4976133;28;20445;-68
2023/06/04 06:14:25;;;;;;;7.28;4.60;;;19.90;75.60;;;;;;4976214;28;20106;-68
2023/06/04 06:16:52;;;;;;;6.47;4.78;;;19.90;75.60;;;;;;4975217;28;20085;-67
2023/06/04 06:19:18;;;;;;;5.65;4.55;;;19.90;75.60;;;;;;4976356;28;20106;-67
2023/06/04 06:21:44;;;;;;;6.15;4.38;;;19.90;75.60;;;;;;4976075;28;20065;-67
2023/06/04 06:24:10;;;;;;;7.03;5.10;;;19.90;75.60;;;;;;4976070;28;20436;-68
2023/06/04 06:26:37;;;;;;;6.53;4.28;;;19.90;75.60;;;;;;4975894;28;20497;-68
2023/06/04 06:29:03;;;;;;;8.27;5.50;;;19.90;75.50;;;;;;4976020;28;20129;-69
2023/06/04 06:31:29;;;;;;;6.45;5.07;;;19.90;75.70;;;;;;4976076;28;20030;-69
2023/06/04 06:33:55;;;;;;;8.32;4.82;;;20.00;75.60;;;;;;4975444;28;20468;-68
2023/06/04 06:36:21;;;;;;;5.80;4.32;;;20.00;75.60;;;;;;4975725;28;20086;-68
2023/06/04 06:38:47;;;;;;;7.82;5.35;;;20.00;75.80;;;;;;4975882;28;20063;-68
2023/06/04 06:41:13;;;;;;;7.13;4.88;;;20.10;75.60;;;;;;4975627;28;20065;-67
2023/06/04 06:43:39;;;;;;;7.60;4.95;;;20.10;75.60;;;;;;4976150;28;20022;-68
2023/06/04 06:46:05;;;;;;;5.63;4.20;;;20.10;75.50;;;;;;4975867;28;20429;-68
2023/06/04 06:48:31;;;;;;;5.43;4.32;;;20.20;75.40;;;;;;4976077;28;20038;-69
2023/06/04 06:50:57;;;;;;;4.70;3.90;;;20.20;75.50;;;;;;4975820;28;20026;-68
2023/06/04 06:53:23;;;;;;;6.38;4.68;;;20.20;75.40;;;;;;4974689;28;20038;-67
2023/06/04 06:55:49;;;;;;;5.88;4.55;;;20.30;75.30;;;;;;4975675;28;20031;-68
2023/06/04 06:58:15;;;;;;;8.57;5.03;;;20.30;75.20;;;;;;4975669;28;20158;-67
2023/06/04 07:00:41;;;;;;;5.03;3.88;;;20.40;75.10;;;;;;4975716;28;20118;-67
2023/06/04 07:03:08;;;;;;;6.60;4.43;;;20.40;75.10;;;;;;4975442;28;20068;-68
2023/06/04 07:05:34;;;;;;;5.57;4.25;;;20.40;75.00;;;;;;4976014;28;20034;-67
2023/06/04 07:08:01;;;;;;;4.57;3.90;;;20.50;74.80;;;;;;4975604;28;20022;-67
2023/06/04 07:10:27;;;;;;;5.40;4.05;;;20.50;74.70;;;;;;4975320;28;20085;-67
2023/06/04 07:12:53;;;;;;;6.00;4.68;;;20.50;74.70;;;;;;4975566;28;20019;-67
2023/06/04 07:15:19;;;;;;;6.43;4.57;;;20.50;74.60;;;;;;4975634;28;20034;-68
2023/06/04 07:17:45;;;;;;;5.88;4.30;;;20.50;74.50;;;;;;4975500;28;20038;-68
2023/06/04 07:20:11;;;;;;;5.63;4.47;;;20.60;74.50;;;;;;4975548;28;20034;-67
2023/06/04 07:22:38;;;;;;;5.32;4.32;;;20.60;74.50;;;;;;4975503;28;20114;-70
2023/06/04 07:25:05;;;;;;;9.00;5.40;;;20.60;74.50;;;;;;4975498;28;20106;-67
2023/06/04 07:27:31;;;;;;;9.07;5.45;;;20.60;74.60;;;;;;4975455;28;20031;-67
2023/06/04 07:29:57;;;;;;;8.48;5.47;;;20.60;74.40;;;;;;4975447;28;20046;-67
2023/06/04 07:32:23;;;;;;;6.13;4.55;;;20.60;74.50;;;;;;4975465;28;20027;-68
2023/06/04 07:34:49;;;;;;;6.70;4.93;;;20.70;74.50;;;;;;4975419;28;20031;-68
2023/06/04 07:37:16;;;;;;;6.00;4.75;;;20.70;74.50;;;;;;4975381;28;20030;-68
2023/06/04 07:39:42;;;;;;;5.95;4.63;;;20.70;74.60;;;;;;4975183;28;20042;-68
2023/06/04 07:42:08;;;;;;;7.53;5.20;;;20.80;74.60;;;;;;4975322;28;20034;-68
2023/06/04 07:44:35;;;;;;;6.40;4.72;;;20.80;74.50;;;;;;4975273;28;20038;-68
2023/06/04 07:47:01;;;;;;;7.43;4.63;;;20.90;74.50;;;;;;4978062;28;20063;-68
2023/06/04 07:49:27;;;;;;;6.90;4.85;;;20.90;74.40;;;;;;4978784;28;20102;-67
2023/06/04 07:51:53;;;;;;;7.57;4.53;;;21.00;74.40;;;;;;4978781;28;20077;-67
2023/06/04 07:54:19;;;;;;;5.22;4.20;;;21.10;74.20;;;;;;4978403;28;20453;-68
2023/06/04 07:56:45;;;;;;;8.52;4.47;;;21.20;74.00;;;;;;4978659;28;20360;-67
2023/06/04 07:59:11;;;;;;;5.40;4.38;;;21.30;73.70;;;;;;4978651;28;20023;-67
2023/06/04 08:01:37;;;;;;;6.47;4.88;;;21.40;73.50;;;;;;4978583;28;20027;-67
2023/06/04 08:04:03;;;;;;;7.72;4.90;;;21.60;73.30;;;;;;4978102;28;20046;-67
2023/06/04 08:06:29;;;;;;;7.43;5.25;;;21.80;72.80;;;;;;4978413;28;20069;-68
2023/06/04 08:08:55;;;;;;;8.52;5.63;;;21.90;72.40;;;;;;4978219;28;20026;-67
2023/06/04 08:11:22;;;;;;;9.02;6.00;;;22.10;71.80;;;;;;4978403;28;20029;-67
2023/06/04 08:13:49;;;;;;;8.57;4.90;;;22.20;71.30;;;;;;4978570;28;20464;-68
2023/06/04 08:16:15;;;;;;;7.22;5.00;;;22.40;70.90;;;;;;4978284;28;20105;-67
2023/06/04 08:18:41;;;;;;;10.80;6.20;;;22.40;70.70;;;;;;4978366;28;20038;-67
2023/06/04 08:21:11;;;;;;;8.70;5.95;;;22.50;70.30;;;;;;4978179;28;20057;-68
2023/06/04 08:23:37;;;;;;;11.43;5.82;;;22.60;69.70;;;;;;4977981;28;20062;-67
2023/06/04 08:26:03;;;;;;;9.15;6.22;;;22.60;69.50;;;;;;4978154;28;20043;-68
2023/06/04 08:28:29;;;;;;;11.23;7.38;;;22.60;69.30;;;;;;4978051;28;20070;-68
2023/06/04 08:30:55;;;;;;;10.18;6.03;;;22.60;69.10;;;;;;4978200;28;20113;-68
2023/06/04 08:33:21;;;;;;;11.63;6.82;;;22.60;68.20;;;;;;4977901;28;20113;-69
2023/06/04 08:35:47;;;;;;;9.15;5.93;;;22.60;67.50;;;;;;4977768;28;20026;-68
2023/06/04 08:38:13;;;;;;;8.60;6.60;;;22.60;66.90;;;;;;4977883;28;20040;-68
2023/06/04 08:40:39;;;;;;;12.20;7.00;;;22.60;67.50;;;;;;4976949;28;20136;-68
2023/06/04 08:43:05;;;;;;;8.93;6.30;;;22.60;67.30;;;;;;4977679;28;20364;-68
2023/06/04 08:45:36;;;;;;;7.55;5.93;;;22.70;66.70;;;;;;4977765;28;20098;-67
2023/06/04 08:48:03;;;;;;;9.48;6.43;;;22.70;66.10;;;;;;4977803;28;20023;-69
2023/06/04 08:50:31;;;;;;;7.80;6.05;;;22.80;65.70;;;;;;4977424;28;20459;-68
2023/06/04 08:52:58;;;;;;;9.20;6.28;;;22.90;65.80;;;;;;4977450;28;20086;-68
2023/06/04 08:55:24;;;;;;;8.98;6.28;;;22.90;65.70;;;;;;4977544;28;20026;-68
2023/06/04 08:57:53;;;;;;;10.27;6.72;;;22.80;65.50;;;;;;4975862;28;20090;-68
2023/06/04 09:00:20;;;;;;;10.68;6.38;;;22.80;65.40;;;;;;4977395;28;20022;-68
2023/06/04 09:02:47;;;;;;;11.50;7.05;;;22.80;65.50;;;;;;4977346;28;20432;-68
2023/06/04 09:05:23;;;;;;;10.35;7.03;;;22.80;65.50;;;;;;4977214;28;20448;-68
2023/06/04 09:07:54;;;;;;;10.75;6.85;;;22.80;65.70;;;;;;4977470;28;20019;-68
2023/06/04 09:10:24;;;;;;;12.30;8.10;;;22.90;65.70;;;;;;4977275;28;20042;-68
2023/06/04 09:12:51;;;;;;;8.93;6.50;;;22.90;65.90;;;;;;4977437;28;20053;-68
2023/06/04 09:15:18;;;;;;;10.88;6.68;;;23.00;65.70;;;;;;4976334;28;20176;-68
2023/06/04 09:17:44;;;;;;;10.20;7.20;;;23.10;65.40;;;;;;4977136;28;20445;-68
2023/06/04 09:20:23;;;;;;;9.82;6.95;;;23.10;65.20;;;;;;4976787;28;20035;-68
2023/06/04 09:22:49;;;;;;;9.88;6.35;;;23.20;64.20;;;;;;4977073;28;20050;-68
2023/06/04 09:25:25;;;;;;;8.82;6.40;;;23.10;64.10;;;;;;4976956;28;20038;-68
2023/06/04 09:27:52;;;;;;;9.65;6.63;;;23.10;62.90;;;;;;4976354;28;20019;-68
2023/06/04 09:30:18;;;;;;;8.52;6.07;;;23.10;62.60;;;;;;4976025;28;20093;-68
2023/06/04 09:32:44;;;;;;;10.32;6.45;;;23.00;63.20;;;;;;4976778;28;20033;-68
2023/06/04 09:35:14;;;;;;;10.43;6.50;;;23.00;63.40;;;;;;4976371;28;20026;-68
2023/06/04 09:37:56;;;;;;;8.13;6.00;;;23.10;63.20;;;;;;4978871;28;20467;-68
2023/06/04 09:40:22;;;;;;;9.20;6.30;;;23.10;63.10;;;;;;4978886;28;20030;-68
2023/06/04 09:42:54;;;;;;;9.48;6.47;;;23.20;62.90;;;;;;4977326;28;20034;-68
2023/06/04 09:45:35;;;;;;;10.75;7.07;;;23.20;62.90;;;;;;4976818;28;20023;-68
2023/06/04 09:48:02;;;;;;;10.50;6.70;;;23.00;62.20;;;;;;4976611;28;20097;-68
2023/06/04 09:50:33;;;;;;;9.23;6.97;;;23.00;62.60;;;;;;4976277;28;20027;-68
2023/06/04 09:53:01;;;;;;;10.85;6.60;;;22.90;62.70;;;;;;4976474;28;20440;-68
2023/06/04 09:55:28;;;;;;;11.38;7.10;;;22.90;62.90;;;;;;4976461;28;20050;-68
2023/06/04 09:57:54;;;;;;;12.65;9.20;;;22.80;63.00;;;;;;4976706;28;20348;-68
2023/06/04 10:00:23;;;;;;;9.15;7.18;;;22.90;63.30;;;;;;4976394;28;20030;-68
2023/06/04 10:02:57;;;;;;;11.25;7.45;;;22.80;63.50;;;;;;4975880;28;20487;-68
2023/06/04 10:05:25;;;;;;;9.38;7.05;;;22.80;63.90;;;;;;4976367;28;20048;-68
2023/06/04 10:07:52;;;;;;;12.05;7.38;;;22.80;63.70;;;;;;4976422;28;20041;-68
2023/06/04 10:10:21;;;;;;;26.27;16.42;;;22.80;63.80;;;;;;4976221;28;20031;-68
2023/06/04 10:12:56;;;;;;;42.88;32.83;;;22.80;64.00;;;;;;4976128;28;20022;-67
2023/06/04 10:15:22;;;;;;;14.48;9.45;;;22.80;64.10;;;;;;4976365;28;20089;-67
2023/06/04 10:17:49;;;;;;;14.57;10.18;;;22.80;64.00;;;;;;4975129;28;20077;-68
2023/06/04 10:20:20;;;;;;;12.32;8.07;;;22.80;64.00;;;;;;4976326;28;20045;-68
2023/06/04 10:22:49;;;;;;;13.18;8.73;;;22.70;64.20;;;;;;4976029;28;20026;-68
2023/06/04 10:25:17;;;;;;;13.13;8.90;;;22.70;64.10;;;;;;4975983;28;20031;-68
2023/06/04 10:27:43;;;;;;;11.63;9.13;;;22.70;63.80;;;;;;4975071;28;20075;-68
2023/06/04 10:30:10;;;;;;;11.90;8.00;;;22.60;63.60;;;;;;4976078;28;20027;-68
2023/06/04 10:32:36;;;;;;;11.70;8.05;;;22.60;63.60;;;;;;4975650;28;20437;-68
2023/06/04 10:35:07;;;;;;;12.48;8.60;;;22.50;63.80;;;;;;4974953;28;20045;-67
2023/06/04 10:37:34;;;;;;;14.10;9.85;;;22.50;64.20;;;;;;4975897;28;20171;-67
2023/06/04 10:40:00;;;;;;;13.27;9.48;;;22.50;63.90;;;;;;4975760;28;20046;-68
2023/06/04 10:42:37;;;;;;;13.93;11.07;;;22.50;64.10;;;;;;4975837;28;20023;-67
2023/06/04 10:45:03;;;;;;;13.73;9.65;;;22.50;64.10;;;;;;4975892;28;20035;-68
2023/06/04 10:47:30;;;;;;;11.52;8.20;;;22.60;64.00;;;;;;4975594;28;20508;-68
2023/06/04 10:50:08;;;;;;;13.20;7.82;;;22.60;64.10;;;;;;4975803;28;20034;-67
2023/06/04 10:52:34;;;;;;;9.90;6.95;;;22.60;64.20;;;;;;4975756;28;20368;-71
2023/06/04 10:55:04;;;;;;;11.48;7.40;;;22.50;64.40;;;;;;4975849;28;20027;-68
2023/06/04 10:57:32;;;;;;;10.98;7.18;;;22.50;63.80;;;;;;4976058;28;20061;-68
2023/06/04 10:59:59;;;;;;;11.48;7.68;;;22.60;64.20;;;;;;4975663;28;20110;-68
2023/06/04 11:02:27;;;;;;;11.48;7.25;;;22.60;64.20;;;;;;4975443;28;20023;-69
2023/06/04 11:05:08;;;;;;;8.98;6.55;;;22.70;64.00;;;;;;4975626;28;20342;-69
2023/06/04 11:07:49;;;;;;;9.43;6.72;;;22.80;64.20;;;;;;4975660;28;20539;-68
2023/06/04 11:10:16;;;;;;;11.40;7.40;;;22.90;63.90;;;;;;4974722;28;20026;-68
2023/06/04 11:12:47;;;;;;;10.20;7.60;;;22.90;63.90;;;;;;4975599;28;20030;-69
2023/06/04 11:15:14;;;;;;;9.32;7.00;;;23.00;63.60;;;;;;4974498;28;20071;-69
2023/06/04 11:18:01;;;;;;;9.70;7.05;;;23.10;63.60;;;;;;4975508;28;20027;-68
2023/06/04 11:20:27;;;;;;;9.98;6.38;;;23.10;63.30;;;;;;4975789;28;20130;-69
2023/06/04 11:22:59;;;;;;;9.98;6.85;;;23.20;63.30;;;;;;4979289;28;20046;-68
2023/06/04 11:25:28;;;;;;;10.75;7.13;;;23.30;63.30;;;;;;4979317;28;20031;-68
2023/06/04 11:27:56;;;;;;;9.85;6.60;;;23.40;63.20;;;;;;4979216;28;20042;-68
2023/06/04 11:30:24;;;;;;;10.30;7.00;;;23.60;63.00;;;;;;4978114;28;20121;-68
2023/06/04 11:32:59;;;;;;;10.82;7.55;;;23.80;63.90;;;;;;4978068;28;20031;-68
2023/06/04 11:35:25;;;;;;;11.30;7.55;;;24.00;63.60;;;;;;4979191;28;20082;-69
2023/06/04 11:37:56;;;;;;;10.43;7.13;;;24.00;62.10;;;;;;4979046;28;20030;-68
2023/06/04 11:40:22;;;;;;;10.75;7.20;;;24.20;62.20;;;;;;4978952;28;20105;-68
2023/06/04 11:42:49;;;;;;;9.23;6.60;;;24.20;61.80;;;;;;4978905;28;20433;-68
2023/06/04 11:45:20;;;;;;;9.80;7.05;;;24.30;60.80;;;;;;4978750;28;20026;-68
2023/06/04 11:47:55;;;;;;;10.70;7.10;;;24.30;60.80;;;;;;4978937;28;20050;-69
2023/06/04 11:50:27;;;;;;;10.32;6.75;;;24.30;61.40;;;;;;4978815;28;20364;-68
2023/06/04 11:52:54;;;;;;;10.03;6.07;;;24.40;60.70;;;;;;4978779;28;20034;-69
2023/06/04 11:55:21;;;;;;;10.20;6.93;;;24.50;60.40;;;;;;4978777;28;20250;-68
2023/06/04 11:57:48;;;;;;;10.05;6.65;;;24.50;59.80;;;;;;4978626;28;20038;-68
2023/06/04 12:00:17;;;;;;;9.63;6.32;;;24.60;59.60;;;;;;4978338;28;20031;-68
2023/06/04 12:02:54;;;;;;;8.70;6.32;;;24.60;59.30;;;;;;4977595;28;20055;-68
2023/06/04 12:05:25;;;;;;;11.32;7.53;;;24.70;59.20;;;;;;4978619;28;20031;-68
2023/06/04 12:07:51;;;;;;;9.02;6.55;;;24.70;58.80;;;;;;4978607;28;20109;-68
2023/06/04 12:10:19;;;;;;;8.90;6.43;;;24.80;59.30;;;;;;4978396;28;20378;-69
2023/06/04 12:12:46;;;;;;;11.68;7.07;;;24.90;59.00;;;;;;4978393;28;20158;-68
2023/06/04 12:15:19;;;;;;;7.88;6.35;;;24.90;58.40;;;;;;4978065;28;20107;-68
2023/06/04 12:17:52;;;;;;;8.77;6.93;;;24.90;58.40;;;;;;4978330;28;20042;-68
2023/06/04 12:20:30;;;;;;;;;;;24.80;58.70;;;;;;4978654;28;20030;-68
2023/06/04 12:22:57;;;;;;;10.75;7.90;;;24.80;59.00;;;;;;4978362;28;19906;-68
2023/06/04 12:25:28;;;;;;;11.07;7.00;;;24.90;59.80;;;;;;4978193;28;20496;-68
2023/06/04 12:27:55;;;;;;;9.88;7.10;;;24.90;58.70;;;;;;4977920;28;20098;-68
2023/06/04 12:30:21;;;;;;;10.48;6.57;;;24.90;58.90;;;;;;4978077;28;20093;-69
2023/06/04 12:32:48;;;;;;;8.38;6.43;;;25.00;58.80;;;;;;4976850;28;20030;-69
2023/06/04 12:35:15;;;;;;;10.98;7.45;;;25.10;58.80;;;;;;4977961;28;20031;-68
2023/06/04 12:37:42;;;;;;;8.80;6.35;;;25.20;58.60;;;;;;4977944;28;20364;-68
2023/06/04 12:40:08;;;;;;;9.13;7.07;;;25.30;58.20;;;;;;4977864;28;20031;-68
2023/06/04 12:42:35;;;;;;;9.18;6.65;;;25.40;57.20;;;;;;4977600;28;20027;-68
2023/06/04 12:45:00;;;;;;;8.65;6.45;;;25.40;57.10;;;;;;4977851;28;20027;-69
2023/06/04 12:47:26;;;;;;;10.85;7.35;;;25.50;56.90;;;;;;4977722;28;20085;-69